Gaylord, MI

8:28 AM EST on November 27, 2014 (GMT -0500)
GAYLORD ALPINE CENTER | Change Station
CLOSE
Current Station
Personal Weather Station
Location: Gaylord, MI
Elevation: 1385 ft
Nearby Weather Stations

Elev 1385 ft 45.04 °N, 84.67 °W | Updated 13 minutes ago

Overcast
Overcast
20.5 °F
Feels Like 8 °F
N
12.5
Wind Variable Wind from West

Today
High -- | Low -- °F
--% Chance of Precip.
Yesterday
High -- | Low -- °F
Precip. -- in
7:52 AM 5:00 PM
Waxing Crescent, 29% visible
Pressure 30.17 in
Visibility 9.0 miles
Clouds Mostly Cloudy 1300 ft
Mostly Cloudy 1700 ft
Overcast 2800 ft
Windchill 8 °F
Dew Point 18 °F
Humidity 89%
Rainfall 0.00 in
Snow Depth Not available.
UV 0 out of 12
Pollen .10 out of 12
Air Quality Not available.
Flu Activity Not available.
METAR KGLR 271253Z AUTO 35006KT 9SM BKN013 BKN017 OVC028 M06/M08 A3011 RMK AO2 SNE51 SLP217 P0000 T10561078

More Conditions Fewer Conditions

Pressure 30.17 in
Visibility 9.0 miles
Clouds Mostly Cloudy 1300 ft
Mostly Cloudy 1700 ft
Overcast 2800 ft
Windchill 8 °F
Dew Point 18 °F
Humidity 89%
Rainfall 0.00 in
Snow Depth Not available.
UV 0 out of 12
Pollen .10 out of 12
Air Quality Not available.
Flu Activity Not available.
METAR KGLR 271253Z AUTO 35006KT 9SM BKN013 BKN017 OVC028 M06/M08 A3011 RMK AO2 SNE51 SLP217 P0000 T10561078

More Conditions Fewer Conditions

Nowcast | as of 8:00 am EST on November 27, 2014

At 9 am...snow. Temperature 21. Northwest winds 10 mph. At 11 am...snow showers. Temperature 20. Northwest winds 13 mph. At 1 PM...snow showers. Temperature 20. Northwest winds 13 mph. At 3 PM...snow showers. Temperature 19. Northwest winds 13 mph.

×

10-Day Weather Forecast

Almanac

Astronomy

Nov. 27, 2014 Rise Set
Actual Time
Civil Twilight
Nautical Twilight
Astronomical Twilight
Moon
Length of Visible Light
Length of Day
Tomorrow will be .
, % of the Moon is Illuminated

Today's Extremes

State Highs State Lows

Community

WunderPhotos

Upload Photos

1,773,995 photos uploaded!

WunderBlogs® & News

Nearby

Air Quality

  Air Quality AQ Index Pollutant
Not available.

Snow Depth

Station Depth Elevation

Earthquake Activity

City Distance Mag. Time & Date
Minimum magnitude displayed is 2.5.

Coastal Water Temperatures

Place Temperature

Nearby Weather Stations